createdAt,value
2017-12-20T00:00:01.019Z,1.14
2017-12-20T00:01:00.770Z,1.2
2017-12-20T00:02:00.715Z,1.17
2017-12-20T00:03:00.696Z,1.18
2017-12-20T00:04:00.949Z,1.2
2017-12-20T00:05:00.663Z,1.17
2017-12-20T00:06:00.935Z,1.17
2017-12-20T00:07:00.912Z,1.14
2017-12-20T00:08:00.880Z,1.14
2017-12-20T00:09:00.864Z,1.14
2017-12-20T00:10:00.844Z,1.17
2017-12-20T00:11:00.557Z,1.14
2017-12-20T00:12:00.807Z,1.14
2017-12-20T00:13:00.790Z,1.14
2017-12-20T00:14:00.503Z,1.11
2017-12-20T00:15:00.760Z,1.07
2017-12-20T00:16:00.469Z,1.08
2017-12-20T00:17:00.721Z,1.12
2017-12-20T00:18:00.988Z,1.07
2017-12-20T00:19:00.416Z,1.11
2017-12-20T00:20:00.686Z,1.11
2017-12-20T00:21:00.651Z,1.11
2017-12-20T00:22:00.633Z,1.11
2017-12-20T00:23:00.348Z,1.14
2017-12-20T00:24:00.605Z,1.11
2017-12-20T00:25:00.854Z,1.17
2017-12-20T00:26:00.571Z,1.12
2017-12-20T00:27:00.557Z,1.17
2017-12-20T00:28:00.529Z,1.15
2017-12-20T00:29:00.237Z,1.03
2017-12-20T00:30:00.609Z,1.07
2017-12-20T00:31:00.366Z,1.12
2017-12-20T00:32:00.188Z,1.07
2017-12-20T00:33:00.190Z,1.11
2017-12-20T00:34:00.696Z,1.12
2017-12-20T00:35:00.172Z,1.17
2017-12-20T00:36:00.120Z,1.11
2017-12-20T00:37:00.371Z,1.14
2017-12-20T00:38:00.357Z,1.14
2017-12-20T00:39:00.084Z,1.12
2017-12-20T00:40:00.320Z,1.17
2017-12-20T00:41:00.028Z,1.18
2017-12-20T00:42:00.285Z,1.18
2017-12-20T00:43:00.277Z,1.2
2017-12-20T00:43:59.981Z,1.18
2017-12-20T00:45:00.232Z,1.17
2017-12-20T00:46:00.227Z,1.1
2017-12-20T00:46:59.935Z,1.18
2017-12-20T00:48:00.179Z,1.11
2017-12-20T00:49:00.164Z,1.11
2017-12-20T00:50:00.149Z,1.11
2017-12-20T00:50:59.857Z,1.2
2017-12-20T00:51:59.857Z,1.14
2017-12-20T00:53:00.096Z,1.04
2017-12-20T00:53:59.829Z,1.18
2017-12-20T00:55:00.094Z,1.12
2017-12-20T00:56:00.061Z,1.18
2017-12-20T00:56:59.765Z,1.14
2017-12-20T00:57:59.732Z,1.12
2017-12-20T00:58:59.714Z,1.18
2017-12-20T00:59:59.971Z,1.2
2017-12-20T01:00:59.954Z,1.14
2017-12-20T01:01:59.664Z,1.14
2017-12-20T01:03:00.191Z,1.22
2017-12-20T01:03:59.636Z,1.18
2017-12-20T01:04:59.899Z,1.18
2017-12-20T01:05:59.649Z,1.15
2017-12-20T01:06:59.594Z,1.17
2017-12-20T01:07:59.832Z,1.17
2017-12-20T01:08:59.541Z,1.18
2017-12-20T01:09:59.535Z,1.12
2017-12-20T01:10:59.777Z,1.17
2017-12-20T01:11:59.509Z,1.17
2017-12-20T01:12:59.758Z,1.18
2017-12-20T01:13:59.467Z,1.12
2017-12-20T01:14:59.475Z,1.17
2017-12-20T01:15:59.430Z,1.15
2017-12-20T01:16:59.679Z,1.17
2017-12-20T01:17:59.654Z,1.11
2017-12-20T01:18:59.921Z,1.2
2017-12-20T01:19:59.360Z,1.12
2017-12-20T01:20:59.334Z,1.14
2017-12-20T01:21:59.600Z,1.18
2017-12-20T01:22:59.293Z,1.14
2017-12-20T01:23:59.290Z,1.15
2017-12-20T01:24:59.257Z,1.12
2017-12-20T01:25:59.564Z,1.21
2017-12-20T01:26:59.242Z,1.15
2017-12-20T01:27:59.756Z,1.15
2017-12-20T01:28:59.190Z,1.2
2017-12-20T01:29:59.442Z,1.15
2017-12-20T01:30:59.425Z,1.12
2017-12-20T01:31:59.412Z,1.15
2017-12-20T01:32:59.391Z,1.12
2017-12-20T01:33:59.103Z,1.24
2017-12-20T01:34:59.634Z,1.21
2017-12-20T01:35:59.068Z,1.21
2017-12-20T01:36:59.324Z,1.18
2017-12-20T01:37:59.305Z,1.17
2017-12-20T01:38:59.014Z,1.2
2017-12-20T01:39:59.017Z,1.24
2017-12-20T01:40:59.249Z,1.2
2017-12-20T01:41:58.962Z,1.18
2017-12-20T01:42:59.244Z,1.18
2017-12-20T01:43:59.205Z,1.26
2017-12-20T01:44:58.910Z,1.21
2017-12-20T01:45:59.467Z,1.17
2017-12-20T01:46:58.871Z,1.15
2017-12-20T01:47:59.134Z,1.14
2017-12-20T01:48:59.114Z,1.21
2017-12-20T01:49:58.825Z,1.15
2017-12-20T01:50:59.075Z,1.18
2017-12-20T01:51:59.056Z,1.11
2017-12-20T01:52:58.792Z,1.21
2017-12-20T01:53:59.296Z,1.14
2017-12-20T01:54:59.009Z,1.21
2017-12-20T01:55:58.719Z,1.2
2017-12-20T01:56:58.988Z,1.17
2017-12-20T01:57:58.952Z,1.2
2017-12-20T01:58:58.687Z,1.18
2017-12-20T01:59:59.190Z,1.24
2017-12-20T02:00:58.922Z,1.2
2017-12-20T02:01:58.895Z,1.24
2017-12-20T02:02:58.869Z,1.18
2017-12-20T02:03:59.130Z,1.21
2017-12-20T02:04:58.559Z,1.17
2017-12-20T02:05:58.824Z,1.2
2017-12-20T02:06:58.808Z,1.22
2017-12-20T02:07:58.777Z,1.21
2017-12-20T02:08:58.492Z,1.21
2017-12-20T02:09:58.744Z,1.18
2017-12-20T02:10:58.456Z,1.24
2017-12-20T02:11:58.978Z,1.24
2017-12-20T02:12:58.423Z,1.33
2017-12-20T02:13:58.690Z,1.2
2017-12-20T02:14:58.656Z,1.24
2017-12-20T02:15:58.638Z,1.21
2017-12-20T02:16:58.911Z,1.2
2017-12-20T02:17:58.610Z,1.22
2017-12-20T02:18:58.599Z,1.29
2017-12-20T02:19:58.573Z,1.26
2017-12-20T02:20:58.554Z,1.3
2017-12-20T02:21:58.544Z,1.29
2017-12-20T02:22:58.528Z,1.21
2017-12-20T02:23:58.500Z,1.24
2017-12-20T02:24:58.482Z,1.2
2017-12-20T02:25:58.480Z,1.3
2017-12-20T02:26:58.448Z,1.32
2017-12-20T02:27:58.452Z,1.2
2017-12-20T02:28:58.142Z,1.28
2017-12-20T02:29:58.128Z,1.26
2017-12-20T02:30:58.651Z,1.28
2017-12-20T02:31:58.107Z,1.21
2017-12-20T02:32:58.627Z,1.29
2017-12-20T02:33:58.094Z,1.29
2017-12-20T02:34:58.055Z,1.28
2017-12-20T02:35:58.292Z,1.26
2017-12-20T02:36:58.279Z,1.21
2017-12-20T02:37:58.285Z,1.22
2017-12-20T02:38:58.240Z,1.24
2017-12-20T02:39:58.230Z,1.24
2017-12-20T02:40:58.228Z,1.3
2017-12-20T02:41:58.481Z,1.22
2017-12-20T02:42:57.899Z,1.24
2017-12-20T02:43:58.153Z,1.17
2017-12-20T02:44:57.883Z,1.28
2017-12-20T02:45:57.845Z,1.32
2017-12-20T02:46:58.120Z,1.26
2017-12-20T02:47:57.811Z,1.21
2017-12-20T02:48:58.066Z,1.2
2017-12-20T02:49:57.795Z,1.3
2017-12-20T02:50:58.035Z,1.24
2017-12-20T02:51:58.015Z,1.26
2017-12-20T02:52:58.028Z,1.29
2017-12-20T02:53:57.730Z,1.3
2017-12-20T02:54:57.964Z,1.24
2017-12-20T02:55:57.959Z,1.24
2017-12-20T02:56:57.932Z,1.29
2017-12-20T02:57:57.907Z,1.24
2017-12-20T02:58:57.617Z,1.32
2017-12-20T02:59:57.602Z,1.28
2017-12-20T03:00:57.871Z,1.18
2017-12-20T03:01:57.841Z,1.3
2017-12-20T03:02:57.548Z,1.21
2017-12-20T03:03:57.540Z,1.32
2017-12-20T03:04:57.787Z,1.29
2017-12-20T03:05:57.770Z,1.32
2017-12-20T03:06:57.479Z,1.2
2017-12-20T03:07:57.466Z,1.24
2017-12-20T03:08:57.446Z,1.3
2017-12-20T03:09:57.431Z,1.24
2017-12-20T03:10:57.431Z,1.32
2017-12-20T03:11:57.670Z,1.29
2017-12-20T03:12:57.650Z,1.33
2017-12-20T03:13:57.373Z,1.32
2017-12-20T03:14:57.340Z,1.32
2017-12-20T03:15:57.344Z,1.33
2017-12-20T03:16:57.580Z,1.32
2017-12-20T03:17:57.562Z,1.29
2017-12-20T03:18:57.273Z,1.17
2017-12-20T03:19:57.549Z,1.3
2017-12-20T03:20:57.235Z,1.3
2017-12-20T03:21:57.493Z,1.26
2017-12-20T03:22:57.475Z,1.35
2017-12-20T03:23:57.185Z,1.32
2017-12-20T03:24:57.170Z,1.32
2017-12-20T03:25:57.695Z,1.33
2017-12-20T03:26:57.142Z,1.3
2017-12-20T03:27:57.115Z,1.24
2017-12-20T03:28:57.654Z,1.32
2017-12-20T03:29:57.626Z,1.35
2017-12-20T03:30:57.619Z,1.32
2017-12-20T03:31:57.046Z,1.29
2017-12-20T03:32:57.027Z,1.33
2017-12-20T03:33:57.286Z,1.33
2017-12-20T03:34:57.283Z,1.2
2017-12-20T03:35:56.988Z,1.35
2017-12-20T03:36:57.231Z,1.32
2017-12-20T03:37:57.504Z,1.3
2017-12-20T03:38:57.213Z,1.3
2017-12-20T03:39:57.180Z,1.32
2017-12-20T03:40:57.442Z,1.15
2017-12-20T03:41:57.145Z,1.35
2017-12-20T03:42:57.404Z,1.38
2017-12-20T03:43:56.858Z,1.32
2017-12-20T03:44:57.091Z,1.32
2017-12-20T03:45:56.825Z,1.29
2017-12-20T03:46:57.343Z,1.3
2017-12-20T03:47:57.041Z,1.36
2017-12-20T03:48:57.293Z,1.3
2017-12-20T03:49:56.734Z,1.39
2017-12-20T03:50:57.003Z,1.24
2017-12-20T03:51:56.972Z,1.38
2017-12-20T03:52:56.960Z,1.39
2017-12-20T03:53:56.663Z,1.39
2017-12-20T03:54:56.661Z,1.24
2017-12-20T03:55:56.900Z,1.24
2017-12-20T03:56:56.885Z,1.32
2017-12-20T03:57:56.864Z,1.33
2017-12-20T03:58:56.577Z,1.33
2017-12-20T03:59:57.121Z,1.33
2017-12-20T04:00:56.832Z,1.39
2017-12-20T04:01:57.077Z,1.35
2017-12-20T04:02:56.508Z,1.33
2017-12-20T04:03:56.544Z,1.4
2017-12-20T04:04:56.744Z,1.29
2017-12-20T04:05:56.730Z,1.4
2017-12-20T04:06:57.040Z,1.36
2017-12-20T04:07:56.705Z,1.38
2017-12-20T04:08:56.437Z,1.4
2017-12-20T04:09:56.660Z,1.38
2017-12-20T04:10:56.915Z,1.39
2017-12-20T04:11:56.353Z,1.38
2017-12-20T04:12:56.604Z,1.42
2017-12-20T04:13:56.321Z,1.38
2017-12-20T04:14:56.569Z,1.33
2017-12-20T04:15:56.557Z,1.32
2017-12-20T04:16:56.267Z,1.35
2017-12-20T04:17:56.520Z,1.38
2017-12-20T04:18:56.512Z,1.38
2017-12-20T04:19:56.488Z,1.42
2017-12-20T04:20:56.809Z,1.35
2017-12-20T04:21:56.453Z,1.44
2017-12-20T04:22:56.174Z,1.39
2017-12-20T04:23:56.687Z,1.33
2017-12-20T04:24:56.440Z,1.24
2017-12-20T04:25:56.110Z,1.36
2017-12-20T04:26:56.363Z,1.35
2017-12-20T04:27:56.077Z,1.32
2017-12-20T04:28:56.354Z,1.35
2017-12-20T04:29:56.054Z,1.36
2017-12-20T04:30:56.060Z,1.38
2017-12-20T04:31:56.292Z,1.33
2017-12-20T04:32:55.987Z,1.42
2017-12-20T04:33:56.245Z,1.29
2017-12-20T04:34:56.228Z,1.42
2017-12-20T04:35:56.545Z,1.29
2017-12-20T04:36:55.922Z,1.4
2017-12-20T04:37:56.444Z,1.29
2017-12-20T04:38:55.888Z,1.33
2017-12-20T04:39:56.422Z,1.36
2017-12-20T04:40:55.853Z,1.4
2017-12-20T04:41:56.403Z,1.38
2017-12-20T04:42:55.821Z,1.44
2017-12-20T04:43:56.070Z,1.29
2017-12-20T04:44:56.350Z,1.28
2017-12-20T04:45:55.764Z,1.36
2017-12-20T04:46:56.019Z,1.3
2017-12-20T04:47:55.753Z,1.32
2017-12-20T04:48:55.982Z,1.35
2017-12-20T04:49:55.696Z,1.36
2017-12-20T04:50:55.976Z,1.33
2017-12-20T04:51:56.233Z,1.35
2017-12-20T04:52:55.913Z,1.3
2017-12-20T04:53:55.924Z,1.36
2017-12-20T04:54:55.609Z,1.32
2017-12-20T04:55:55.862Z,1.32
2017-12-20T04:56:55.574Z,1.33
2017-12-20T04:57:55.831Z,1.35
2017-12-20T04:58:56.115Z,1.3
2017-12-20T04:59:55.795Z,1.28
2017-12-20T05:00:55.778Z,1.33
2017-12-20T05:01:55.489Z,1.32
2017-12-20T05:02:55.471Z,1.24
2017-12-20T05:03:55.722Z,1.32
2017-12-20T05:04:55.436Z,1.2
2017-12-20T05:05:55.419Z,1.21
2017-12-20T05:06:55.675Z,1.32
2017-12-20T05:07:55.654Z,1.33
2017-12-20T05:08:55.648Z,1.32
2017-12-20T05:09:55.905Z,1.2
2017-12-20T05:10:55.605Z,1.22
2017-12-20T05:11:55.314Z,1.28
2017-12-20T05:12:55.296Z,1.24
2017-12-20T05:13:55.551Z,1.24
2017-12-20T05:14:55.806Z,1.26
2017-12-20T05:15:55.575Z,1.29
2017-12-20T05:16:55.500Z,1.29
2017-12-20T05:17:55.482Z,1.22
2017-12-20T05:18:55.463Z,1.2
2017-12-20T05:19:55.717Z,1.24
2017-12-20T05:20:55.156Z,1.24
2017-12-20T05:21:55.704Z,1.28
2017-12-20T05:22:55.123Z,1.22
2017-12-20T05:23:55.104Z,1.29
2017-12-20T05:24:55.633Z,1.18
2017-12-20T05:25:55.092Z,1.32
2017-12-20T05:26:55.326Z,1.3
2017-12-20T05:27:55.581Z,1.33
2017-12-20T05:28:55.020Z,1.32
2017-12-20T05:29:55.542Z,1.29
2017-12-20T05:30:54.987Z,1.22
2017-12-20T05:31:55.237Z,1.3
2017-12-20T05:32:55.238Z,1.24
2017-12-20T05:33:54.932Z,1.32
2017-12-20T05:34:54.916Z,1.36
2017-12-20T05:35:54.895Z,1.33
2017-12-20T05:36:54.881Z,1.36
2017-12-20T05:37:55.146Z,1.35
2017-12-20T05:38:55.134Z,1.39
2017-12-20T05:39:55.103Z,1.32
2017-12-20T05:40:55.084Z,1.35
2017-12-20T05:41:55.355Z,1.28
2017-12-20T05:42:54.774Z,1.32
2017-12-20T05:43:55.032Z,1.24
2017-12-20T05:44:55.035Z,1.33
2017-12-20T05:45:55.002Z,1.28
2017-12-20T05:46:54.708Z,1.33
2017-12-20T05:47:54.695Z,1.36
2017-12-20T05:48:54.955Z,1.28
2017-12-20T05:49:55.194Z,1.35
2017-12-20T05:50:55.185Z,1.38
2017-12-20T05:51:54.900Z,1.36
2017-12-20T05:52:54.880Z,1.29
2017-12-20T05:53:54.584Z,1.36
2017-12-20T05:54:55.123Z,1.35
2017-12-20T05:55:54.583Z,1.33
2017-12-20T05:56:55.075Z,1.33
2017-12-20T05:57:54.806Z,1.32
2017-12-20T05:58:54.770Z,1.35
2017-12-20T05:59:54.481Z,1.32
2017-12-20T06:00:54.737Z,1.35
2017-12-20T06:01:54.716Z,1.32
2017-12-20T06:02:54.703Z,1.36
2017-12-20T06:03:54.410Z,1.3
2017-12-20T06:04:54.935Z,1.2
2017-12-20T06:05:54.648Z,1.24
2017-12-20T06:06:54.628Z,1.32
2017-12-20T06:07:54.618Z,1.29
2017-12-20T06:08:54.596Z,1.21
2017-12-20T06:09:54.307Z,1.28
2017-12-20T06:10:54.564Z,1.26
2017-12-20T06:11:54.544Z,1.17
2017-12-20T06:12:54.541Z,1.24
2017-12-20T06:13:54.790Z,1.24
2017-12-20T06:14:54.230Z,1.2
2017-12-20T06:15:54.754Z,1.28
2017-12-20T06:16:54.458Z,1.28
2017-12-20T06:17:54.720Z,1.22
2017-12-20T06:18:54.152Z,1.28
2017-12-20T06:19:54.406Z,1.26
2017-12-20T06:20:54.389Z,1.24
2017-12-20T06:21:54.099Z,1.22
2017-12-20T06:22:54.351Z,1.18
2017-12-20T06:23:54.074Z,1.24
2017-12-20T06:24:54.320Z,1.18
2017-12-20T06:25:54.299Z,1.21
2017-12-20T06:26:54.013Z,1.28
2017-12-20T06:27:53.993Z,1.21
2017-12-20T06:28:54.538Z,1.2
2017-12-20T06:29:53.996Z,1.22
2017-12-20T06:30:54.510Z,1.29
2017-12-20T06:31:54.195Z,1.24
2017-12-20T06:32:54.455Z,1.28
2017-12-20T06:33:54.162Z,1.22
2017-12-20T06:34:54.159Z,1.17
2017-12-20T06:35:53.880Z,1.17
2017-12-20T06:36:53.837Z,1.08
2017-12-20T06:37:54.096Z,1.08
2017-12-20T06:38:53.807Z,0.99
2017-12-20T06:39:54.081Z,1.17
2017-12-20T06:40:53.772Z,1.18
2017-12-20T06:41:53.752Z,1.14
2017-12-20T06:42:54.005Z,1.15
2017-12-20T06:43:53.721Z,1.15
2017-12-20T06:44:53.972Z,1.18
2017-12-20T06:45:53.696Z,1.22
2017-12-20T06:46:53.944Z,1.12
2017-12-20T06:47:54.196Z,1.18
2017-12-20T06:48:53.628Z,1.29
2017-12-20T06:49:53.893Z,1.21
2017-12-20T06:50:53.865Z,1.24
2017-12-20T06:51:53.862Z,1.17
2017-12-20T06:52:53.559Z,1.22
2017-12-20T06:53:53.814Z,1.18
2017-12-20T06:54:53.549Z,1.21
2017-12-20T06:55:53.786Z,1.21
2017-12-20T06:56:53.766Z,1.26
2017-12-20T06:57:53.472Z,1.17
2017-12-20T06:58:53.453Z,1.22
2017-12-20T06:59:53.716Z,1.2
2017-12-20T07:00:53.421Z,1.24
2017-12-20T07:01:53.946Z,1.21
2017-12-20T07:02:53.387Z,1.18
2017-12-20T07:03:53.388Z,1.2
2017-12-20T07:04:53.622Z,1.21
2017-12-20T07:05:53.603Z,1.24
2017-12-20T07:06:53.863Z,1.21
2017-12-20T07:07:53.570Z,1.28
2017-12-20T07:08:53.281Z,1.18
2017-12-20T07:09:53.536Z,1.15
2017-12-20T07:10:53.534Z,1.17
2017-12-20T07:11:53.505Z,1.2
2017-12-20T07:12:53.211Z,1.22
2017-12-20T07:13:53.468Z,1.3
2017-12-20T07:14:53.177Z,1.26
2017-12-20T07:15:53.164Z,1.32
2017-12-20T07:16:53.478Z,1.39
2017-12-20T07:17:53.124Z,1.39
2017-12-20T07:18:53.647Z,1.35
2017-12-20T07:19:53.381Z,1.36
2017-12-20T07:20:53.641Z,1.3
2017-12-20T07:21:53.324Z,1.36
2017-12-20T07:22:53.608Z,1.38
2017-12-20T07:23:53.020Z,1.44
2017-12-20T07:24:53.275Z,1.38
2017-12-20T07:25:52.985Z,1.39
2017-12-20T07:26:53.241Z,1.36
2017-12-20T07:27:52.947Z,1.38
2017-12-20T07:28:53.205Z,1.36
2017-12-20T07:29:53.188Z,1.32
2017-12-20T07:30:53.166Z,1.3
2017-12-20T07:31:52.879Z,1.32
2017-12-20T07:32:53.405Z,1.3
2017-12-20T07:33:53.138Z,1.26
2017-12-20T07:34:52.829Z,1.36
2017-12-20T07:35:52.811Z,1.33
2017-12-20T07:36:53.087Z,1.29
2017-12-20T07:37:53.047Z,1.4
2017-12-20T07:38:52.760Z,1.2
2017-12-20T07:39:52.742Z,1.33
2017-12-20T07:40:52.999Z,1.33
2017-12-20T07:41:52.711Z,1.36
2017-12-20T07:42:52.962Z,1.3
2017-12-20T07:43:53.220Z,1.38
2017-12-20T07:44:52.927Z,1.35
2017-12-20T07:45:52.660Z,1.32
2017-12-20T07:46:52.619Z,1.35
2017-12-20T07:47:52.602Z,1.39
2017-12-20T07:48:52.606Z,1.39
2017-12-20T07:49:52.567Z,1.39
2017-12-20T07:50:55.284Z,1.35
2017-12-20T07:51:52.532Z,1.46
2017-12-20T07:52:53.058Z,1.46
2017-12-20T07:53:52.498Z,1.46
2017-12-20T07:54:52.752Z,1.4
2017-12-20T07:55:52.742Z,1.46
2017-12-20T07:56:52.755Z,1.47
2017-12-20T07:57:52.429Z,1.48
2017-12-20T07:58:52.683Z,1.42
2017-12-20T07:59:52.665Z,1.51
2017-12-20T08:00:52.382Z,1.51
2017-12-20T08:01:52.631Z,1.44
2017-12-20T08:02:52.358Z,1.42
2017-12-20T08:03:52.602Z,1.44
2017-12-20T08:04:52.596Z,1.47
2017-12-20T08:05:52.579Z,1.47
2017-12-20T08:06:52.543Z,1.57
2017-12-20T08:07:52.535Z,1.57
2017-12-20T08:08:52.514Z,1.6
2017-12-20T08:09:52.222Z,1.64
2017-12-20T08:10:52.750Z,1.6
2017-12-20T08:11:52.458Z,1.64
2017-12-20T08:12:52.441Z,1.78
2017-12-20T08:13:52.696Z,1.69
2017-12-20T08:14:52.148Z,1.71
2017-12-20T08:15:52.142Z,1.82
2017-12-20T08:16:52.101Z,1.82
2017-12-20T08:17:52.369Z,1.83
2017-12-20T08:18:52.607Z,1.82
2017-12-20T08:19:52.366Z,1.82
2017-12-20T08:20:52.057Z,1.89
2017-12-20T08:21:52.311Z,1.82
2017-12-20T08:22:52.268Z,1.86
2017-12-20T08:23:52.256Z,1.97
2017-12-20T08:24:52.254Z,2.01
2017-12-20T08:25:52.219Z,2.04
2017-12-20T08:26:51.943Z,2.08
2017-12-20T08:27:52.198Z,2.12
2017-12-20T08:28:52.168Z,2.04
2017-12-20T08:29:52.157Z,2.09
2017-12-20T08:30:52.140Z,2.09
2017-12-20T08:31:52.392Z,2.15
2017-12-20T08:32:51.847Z,2.12
2017-12-20T08:33:52.096Z,2.09
2017-12-20T08:34:51.797Z,2.16
2017-12-20T08:35:52.067Z,2.13
2017-12-20T08:36:51.762Z,2.22
2017-12-20T08:37:52.020Z,2.23
2017-12-20T08:38:52.294Z,2.23
2017-12-20T08:39:51.727Z,2.31
2017-12-20T08:40:51.968Z,2.33
2017-12-20T08:41:51.967Z,2.29
2017-12-20T08:42:51.677Z,2.31
2017-12-20T08:43:51.918Z,2.38
2017-12-20T08:44:51.627Z,2.34
2017-12-20T08:45:51.882Z,2.36
2017-12-20T08:46:51.864Z,2.33
2017-12-20T08:47:51.867Z,2.36
2017-12-20T08:48:51.831Z,2.31
2017-12-20T08:49:51.823Z,2.33
2017-12-20T08:50:51.544Z,2.3
2017-12-20T08:51:51.804Z,2.16
2017-12-20T08:52:51.767Z,2.15
2017-12-20T08:53:51.768Z,2.15
2017-12-20T08:54:51.459Z,2.09
2017-12-20T08:55:51.713Z,2.11
2017-12-20T08:56:51.696Z,2.15
2017-12-20T08:57:51.691Z,2.13
2017-12-20T08:58:51.665Z,2.3
2017-12-20T08:59:51.377Z,2.29
2017-12-20T09:00:51.360Z,2.34
2017-12-20T09:01:51.884Z,2.3
2017-12-20T09:02:51.598Z,2.3
2017-12-20T09:03:51.312Z,2.31
2017-12-20T09:04:51.603Z,2.31
2017-12-20T09:05:51.819Z,2.36
2017-12-20T09:06:51.535Z,2.38
2017-12-20T09:07:51.516Z,2.4
2017-12-20T09:08:51.498Z,2.4
2017-12-20T09:09:51.487Z,2.33
2017-12-20T09:10:51.194Z,2.36
2017-12-20T09:11:51.194Z,2.3
2017-12-20T09:12:51.434Z,2.27
2017-12-20T09:13:51.153Z,2.24
2017-12-20T09:14:51.422Z,2.33
2017-12-20T09:15:51.382Z,2.34
2017-12-20T09:16:51.367Z,2.33
2017-12-20T09:17:51.078Z,2.3
2017-12-20T09:18:51.606Z,2.36
2017-12-20T09:19:51.319Z,2.29
2017-12-20T09:20:51.297Z,2.27
2017-12-20T09:21:51.011Z,2.16
2017-12-20T09:22:50.996Z,2.24
2017-12-20T09:23:51.520Z,2.29
2017-12-20T09:24:51.234Z,2.29
2017-12-20T09:25:51.218Z,2.31
2017-12-20T09:26:50.948Z,2.33
2017-12-20T09:27:50.912Z,2.38
2017-12-20T09:28:51.195Z,2.33
2017-12-20T09:29:51.460Z,2.44
2017-12-20T09:30:51.407Z,2.48
2017-12-20T09:31:50.848Z,2.45
2017-12-20T09:32:50.831Z,2.49
2017-12-20T09:33:51.086Z,2.49
2017-12-20T09:34:51.067Z,2.38
2017-12-20T09:35:51.053Z,2.48
2017-12-20T09:36:51.046Z,2.49
2017-12-20T09:37:51.017Z,2.36
2017-12-20T09:38:51.276Z,2.48
2017-12-20T09:39:50.715Z,2.4
2017-12-20T09:40:50.699Z,2.47
2017-12-20T09:41:50.980Z,2.49
2017-12-20T09:42:50.674Z,2.51
2017-12-20T09:43:50.679Z,2.52
2017-12-20T09:44:50.923Z,2.52
2017-12-20T09:45:50.897Z,2.55
2017-12-20T09:46:50.873Z,2.59
2017-12-20T09:47:50.608Z,2.73
2017-12-20T09:48:50.845Z,2.78
2017-12-20T09:49:50.821Z,2.77
2017-12-20T09:50:50.822Z,2.84
2017-12-20T09:51:50.793Z,2.87
2017-12-20T09:52:50.519Z,2.83
2017-12-20T09:53:50.757Z,2.78
2017-12-20T09:54:50.751Z,2.87
2017-12-20T09:55:50.454Z,2.8
2017-12-20T09:56:50.716Z,2.81
2017-12-20T09:57:50.692Z,2.87
2017-12-20T09:58:50.404Z,2.84
2017-12-20T09:59:50.660Z,2.85
2017-12-20T10:00:50.642Z,2.96
2017-12-20T10:01:50.649Z,2.95
2017-12-20T10:02:50.613Z,2.88
2017-12-20T10:03:50.324Z,2.95
2017-12-20T10:04:50.326Z,2.91
2017-12-20T10:05:50.293Z,2.77
2017-12-20T10:06:50.547Z,2.85
2017-12-20T10:07:50.550Z,2.95
2017-12-20T10:08:50.517Z,2.93
2017-12-20T10:09:50.825Z,3.02
2017-12-20T10:10:50.754Z,3.03
2017-12-20T10:11:50.468Z,3.09
2017-12-20T10:12:50.742Z,3.02
2017-12-20T10:13:50.706Z,3.2
2017-12-20T10:14:50.147Z,3.2
2017-12-20T10:15:50.137Z,3.3
2017-12-20T10:16:50.385Z,3.48
2017-12-20T10:17:50.103Z,3.45
2017-12-20T10:18:50.105Z,3.42
2017-12-20T10:19:50.067Z,3.49
2017-12-20T10:20:50.350Z,3.42
2017-12-20T10:21:50.038Z,3.35
2017-12-20T10:22:50.293Z,3.49
2017-12-20T10:23:50.274Z,3.51
2017-12-20T10:24:50.532Z,3.57
2017-12-20T10:25:50.516Z,3.53
2017-12-20T10:26:49.961Z,3.6
2017-12-20T10:27:50.213Z,3.53
2017-12-20T10:28:50.203Z,3.66
2017-12-20T10:29:50.180Z,3.69
2017-12-20T10:30:50.439Z,3.66
2017-12-20T10:31:50.426Z,3.75
2017-12-20T10:32:49.909Z,3.79
2017-12-20T10:33:50.398Z,3.79
2017-12-20T10:34:50.104Z,3.89
2017-12-20T10:35:49.819Z,3.81
2017-12-20T10:36:50.078Z,3.84
2017-12-20T10:37:49.789Z,3.9
2017-12-20T10:38:50.041Z,3.92
2017-12-20T10:39:49.757Z,3.85
2017-12-20T10:40:50.012Z,3.94
2017-12-20T10:41:49.756Z,3.97
2017-12-20T10:42:49.711Z,4.03
2017-12-20T10:43:49.967Z,4.03
2017-12-20T10:44:49.680Z,4.18
2017-12-20T10:45:49.668Z,4.14
2017-12-20T10:46:50.189Z,4.14
2017-12-20T10:47:49.637Z,4.21
2017-12-20T10:48:49.616Z,4.12
2017-12-20T10:49:49.880Z,4.11
2017-12-20T10:50:49.608Z,4.15
2017-12-20T10:51:49.846Z,4.17
2017-12-20T10:52:49.559Z,4.15
2017-12-20T10:53:49.588Z,4.12
2017-12-20T10:54:49.799Z,4.1
2017-12-20T10:55:49.802Z,4.03
2017-12-20T10:56:49.770Z,3.99
2017-12-20T10:57:49.482Z,3.94
2017-12-20T10:58:49.739Z,3.94
2017-12-20T10:59:49.994Z,3.99
2017-12-20T11:00:49.434Z,3.93
2017-12-20T11:01:49.694Z,3.99
2017-12-20T11:02:49.951Z,3.92
2017-12-20T11:03:49.662Z,4
2017-12-20T11:04:49.378Z,3.97
2017-12-20T11:05:49.364Z,3.97
2017-12-20T11:06:49.647Z,3.97
2017-12-20T11:07:49.332Z,3.99
2017-12-20T11:08:49.613Z,3.96
2017-12-20T11:09:49.303Z,3.96
2017-12-20T11:10:49.560Z,3.97
2017-12-20T11:11:49.541Z,4
2017-12-20T11:12:49.816Z,4
2017-12-20T11:13:49.789Z,3.86
2017-12-20T11:14:49.499Z,3.97
2017-12-20T11:15:49.770Z,3.96
2017-12-20T11:16:49.198Z,3.86
2017-12-20T11:17:49.451Z,3.84
2017-12-20T11:18:49.436Z,3.81
2017-12-20T11:19:49.429Z,3.82
2017-12-20T11:20:49.417Z,3.82
2017-12-20T11:21:49.119Z,3.84
2017-12-20T11:22:49.655Z,3.94
2017-12-20T11:23:49.091Z,3.94
2017-12-20T11:24:49.618Z,3.93
2017-12-20T11:25:49.602Z,3.82
2017-12-20T11:26:49.045Z,3.86
2017-12-20T11:27:49.606Z,3.89
2017-12-20T11:28:49.285Z,3.74
2017-12-20T11:29:49.310Z,3.84
2017-12-20T11:30:48.987Z,3.85
2017-12-20T11:31:49.241Z,3.85
2017-12-20T11:32:48.955Z,3.84
2017-12-20T11:33:49.226Z,3.82
2017-12-20T11:34:48.925Z,3.84
2017-12-20T11:35:48.939Z,3.85
2017-12-20T11:36:48.903Z,3.79
2017-12-20T11:37:48.899Z,3.79
2017-12-20T11:38:49.144Z,3.84
2017-12-20T11:39:48.848Z,3.78
2017-12-20T11:40:49.134Z,3.84
2017-12-20T11:41:49.096Z,3.79
2017-12-20T11:42:49.074Z,3.84
2017-12-20T11:43:48.801Z,3.99
2017-12-20T11:44:49.315Z,3.97
2017-12-20T11:45:49.032Z,3.99
2017-12-20T11:46:48.743Z,3.94
2017-12-20T11:47:48.726Z,3.94
2017-12-20T11:48:49.276Z,3.96
2017-12-20T11:49:48.969Z,4.04
2017-12-20T11:50:48.965Z,3.96
2017-12-20T11:51:48.688Z,3.97
2017-12-20T11:52:48.655Z,3.96
2017-12-20T11:53:49.202Z,3.96
2017-12-20T11:54:48.892Z,3.97
2017-12-20T11:55:48.880Z,3.96
2017-12-20T11:56:48.614Z,3.97
2017-12-20T11:57:48.850Z,3.9
2017-12-20T11:58:48.845Z,3.96
2017-12-20T11:59:48.546Z,4.02
2017-12-20T12:00:48.570Z,3.93
2017-12-20T12:01:48.808Z,3.89
2017-12-20T12:02:49.047Z,3.86
2017-12-20T12:03:48.488Z,3.9
2017-12-20T12:04:49.016Z,3.86
2017-12-20T12:05:48.725Z,3.85
2017-12-20T12:06:48.461Z,3.85
2017-12-20T12:07:48.697Z,3.96
2017-12-20T12:08:48.952Z,3.99
2017-12-20T12:09:48.668Z,4.04
2017-12-20T12:10:48.649Z,3.96
2017-12-20T12:11:48.636Z,4.04
2017-12-20T12:12:48.623Z,4.11
2017-12-20T12:13:48.341Z,4.21
2017-12-20T12:14:48.319Z,4.17
2017-12-20T12:15:48.584Z,4.22
2017-12-20T12:16:48.288Z,4.21
2017-12-20T12:17:48.551Z,4.28
2017-12-20T12:18:48.556Z,4.3
2017-12-20T12:19:48.519Z,4.39
2017-12-20T12:20:48.249Z,4.35
2017-12-20T12:21:48.215Z,4.39
2017-12-20T12:22:48.468Z,4.32
2017-12-20T12:23:48.452Z,4.39
2017-12-20T12:24:48.177Z,4.22
2017-12-20T12:25:48.425Z,4.21
2017-12-20T12:26:48.140Z,4.29
2017-12-20T12:27:48.406Z,4.12
2017-12-20T12:28:48.392Z,4.14
2017-12-20T12:29:48.369Z,4.18
2017-12-20T12:30:48.080Z,4.15
2017-12-20T12:31:48.064Z,4.15
2017-12-20T12:32:48.367Z,4.12
2017-12-20T12:33:48.304Z,4.08
2017-12-20T12:34:48.021Z,4.1
2017-12-20T12:35:48.297Z,4.08
2017-12-20T12:36:48.257Z,4.07
2017-12-20T12:37:47.973Z,3.9
2017-12-20T12:38:47.959Z,3.96
2017-12-20T12:39:48.215Z,3.94
2017-12-20T12:40:48.198Z,3.93
2017-12-20T12:41:48.187Z,3.79
2017-12-20T12:42:48.172Z,3.72
2017-12-20T12:43:47.882Z,3.75
2017-12-20T12:44:47.869Z,3.72
2017-12-20T12:45:47.852Z,3.67
2017-12-20T12:46:48.110Z,3.57
2017-12-20T12:47:48.103Z,3.58
2017-12-20T12:48:47.810Z,3.51
2017-12-20T12:49:47.810Z,3.51
2017-12-20T12:50:47.775Z,3.63
2017-12-20T12:51:47.762Z,3.58
2017-12-20T12:52:47.747Z,3.67
2017-12-20T12:53:47.737Z,3.67
2017-12-20T12:54:47.997Z,3.6
2017-12-20T12:55:47.975Z,3.64
2017-12-20T12:56:47.685Z,3.56
2017-12-20T12:57:47.685Z,3.57
2017-12-20T12:58:47.660Z,3.56
2017-12-20T12:59:48.194Z,3.46
2017-12-20T13:00:47.892Z,3.43
2017-12-20T13:01:47.882Z,3.45
2017-12-20T13:02:47.877Z,3.4
2017-12-20T13:03:47.587Z,3.34
2017-12-20T13:04:47.833Z,3.24
2017-12-20T13:05:48.092Z,3.2
2017-12-20T13:06:47.824Z,3.2
2017-12-20T13:07:47.785Z,3.17
2017-12-20T13:08:47.776Z,3.13
2017-12-20T13:09:47.756Z,3.11
2017-12-20T13:10:47.468Z,3.2
2017-12-20T13:11:47.770Z,3.14
2017-12-20T13:12:47.978Z,3.14
2017-12-20T13:13:47.441Z,3.16
2017-12-20T13:14:47.677Z,3.11
2017-12-20T13:15:47.664Z,3.16
2017-12-20T13:16:47.376Z,3.13
2017-12-20T13:17:47.639Z,3.16
2017-12-20T13:18:47.617Z,3.21
2017-12-20T13:19:47.601Z,3.14
2017-12-20T13:20:47.602Z,3.13